Time;durP1;ratioP1;P1;durP2;ratioP2;P2;SDS_P1;SDS_P2;PMS_P1;PMS_P2;Temp;Humidity;BMP_temperature;BMP_pressure;BME280_temperature;BME280_humidity;BME280_pressure;Samples;Min_cycle;Max_cycle;Signal;HPM_P1;HPM_P2
2023/02/24 00:02:52;;;;;;;30.53;28.10;;;12.60;42.80;;;;;;4979491;28;20446;-57
2023/02/24 00:05:18;;;;;;;27.90;25.80;;;12.60;43.00;;;;;;4964738;28;20454;-57
2023/02/24 00:07:43;;;;;;;30.57;27.90;;;12.70;42.10;;;;;;4962939;28;20237;-58
2023/02/24 00:10:10;;;;;;;30.90;28.20;;;12.70;41.90;;;;;;4963882;28;20185;-59
2023/02/24 00:12:36;;;;;;;30.87;28.27;;;12.80;41.60;;;;;;4962076;28;20563;-58
2023/02/24 00:15:03;;;;;;;29.97;27.57;;;12.80;41.30;;;;;;4964610;28;20465;-59
2023/02/24 00:17:29;;;;;;;30.07;27.27;;;12.80;41.00;;;;;;4963463;28;20269;-59
2023/02/24 00:19:55;;;;;;;30.20;27.70;;;12.80;41.00;;;;;;4964509;28;20439;-59
2023/02/24 00:22:22;;;;;;;30.13;27.23;;;12.80;40.80;;;;;;4963286;28;20927;-59
2023/02/24 00:24:47;;;;;;;30.83;28.33;;;12.80;40.90;;;;;;4963370;28;20980;-47
2023/02/24 00:27:13;;;;;;;28.47;26.37;;;12.80;40.80;;;;;;4962833;28;20422;-45
2023/02/24 00:29:40;;;;;;;29.53;26.97;;;12.80;40.80;;;;;;4968446;28;20186;-48
2023/02/24 00:32:11;;;;;;;29.13;26.57;;;12.70;41.00;;;;;;4960737;28;20187;-48
2023/02/24 00:34:37;;;;;;;27.80;25.57;;;12.70;41.30;;;;;;4967253;28;20827;-48
2023/02/24 00:37:07;;;;;;;30.27;27.83;;;12.70;41.40;;;;;;4960074;28;20418;-53
2023/02/24 00:39:34;;;;;;;30.13;27.70;;;12.60;41.70;;;;;;4983317;28;20425;-49
2023/02/24 00:42:04;;;;;;;29.33;27.03;;;12.70;42.60;;;;;;4960823;28;20909;-50
2023/02/24 00:44:40;;;;;;;30.97;28.30;;;12.60;42.00;;;;;;4964388;28;20449;-49
2023/02/24 00:47:07;;;;;;;30.10;27.60;;;12.60;42.10;;;;;;4960582;28;20787;-50
2023/02/24 00:49:34;;;;;;;29.67;27.27;;;12.50;42.70;;;;;;4964312;28;20426;-49
2023/02/24 00:52:03;;;;;;;32.00;29.07;;;12.50;42.80;;;;;;4965490;28;20814;-53
2023/02/24 00:54:29;;;;;;;30.97;28.57;;;12.50;43.80;;;;;;4961096;28;20469;-49
2023/02/24 00:56:55;;;;;;;29.50;27.20;;;12.40;43.50;;;;;;4968170;28;20587;-50
2023/02/24 00:59:25;;;;;;;30.00;27.20;;;12.20;44.70;;;;;;4956514;28;20178;-52
2023/02/24 01:01:53;;;;;;;29.67;27.37;;;12.30;44.30;;;;;;4967205;28;20423;-52
2023/02/24 01:04:19;;;;;;;30.60;28.20;;;12.30;43.60;;;;;;4960556;28;20434;-47
2023/02/24 01:06:48;;;;;;;32.27;29.57;;;12.40;43.80;;;;;;4963685;28;20532;-46
2023/02/24 01:09:19;;;;;;;29.63;27.23;;;12.40;43.70;;;;;;4966230;28;20499;-48
2023/02/24 01:14:32;;;;;;;29.90;27.37;;;12.40;43.40;;;;;;4972858;28;20516;-49
2023/02/24 01:16:58;;;;;;;29.87;27.53;;;12.50;43.60;;;;;;4962070;28;20434;-47
2023/02/24 01:19:30;;;;;;;30.60;27.80;;;12.40;43.50;;;;;;4954211;28;20491;-49
2023/02/24 01:22:07;;;;;;;29.20;27.10;;;12.50;43.30;;;;;;4962124;28;20179;-49
2023/02/24 01:24:37;;;;;;;29.13;26.90;;;12.50;43.80;;;;;;4968474;28;20460;-49
2023/02/24 01:27:04;;;;;;;29.43;27.00;;;12.40;43.20;;;;;;4961506;28;20448;-49
2023/02/24 01:29:29;;;;;;;30.03;27.73;;;12.40;43.80;;;;;;4968114;28;20921;-47
2023/02/24 01:31:58;;;;;;;30.80;28.50;;;12.40;43.70;;;;;;4961787;28;20441;-50
2023/02/24 01:34:27;;;;;;;31.50;29.00;;;12.40;43.70;;;;;;4967177;28;20251;-47
2023/02/24 01:36:53;;;;;;;28.40;26.20;;;12.40;43.50;;;;;;4958544;28;20421;-48
2023/02/24 01:39:19;;;;;;;28.63;26.33;;;12.30;43.60;;;;;;4965377;28;20425;-50
2023/02/24 01:41:48;;;;;;;31.40;29.10;;;12.20;43.60;;;;;;4956548;28;20418;-51
2023/02/24 01:44:16;;;;;;;29.13;27.00;;;12.20;43.90;;;;;;4964193;28;20457;-48
2023/02/24 01:46:47;;;;;;;28.10;26.00;;;12.20;44.00;;;;;;4962270;28;20853;-49
2023/02/24 01:49:19;;;;;;;27.77;25.60;;;12.20;44.00;;;;;;4965410;28;20421;-49
2023/02/24 01:51:53;;;;;;;26.77;24.97;;;12.20;44.20;;;;;;4963040;28;20433;-54
2023/02/24 01:54:22;;;;;;;27.80;25.80;;;12.20;43.70;;;;;;4965578;28;20460;-47
2023/02/24 01:56:50;;;;;;;26.90;25.03;;;12.20;43.50;;;;;;4964948;28;20909;-48
2023/02/24 01:59:17;;;;;;;28.20;26.00;;;12.10;43.40;;;;;;4964499;28;20480;-49
2023/02/24 02:01:44;;;;;;;27.67;25.67;;;12.20;43.50;;;;;;4964780;28;20422;-49
2023/02/24 02:04:17;;;;;;;28.70;26.80;;;12.10;43.40;;;;;;4966848;28;21195;-48
2023/02/24 02:06:45;;;;;;;27.67;25.63;;;12.10;43.40;;;;;;4964219;28;20504;-48
2023/02/24 02:09:14;;;;;;;28.50;26.30;;;12.10;43.40;;;;;;4966092;28;20425;-52
2023/02/24 02:11:47;;;;;;;29.33;27.13;;;12.10;43.90;;;;;;4964011;28;20556;-49
2023/02/24 02:14:18;;;;;;;29.13;26.83;;;12.10;43.40;;;;;;4965306;28;20507;-50
2023/02/24 02:16:43;;;;;;;28.83;26.63;;;11.90;44.00;;;;;;4987057;28;20425;-49
2023/02/24 02:19:27;;;;;;;29.20;26.83;;;11.90;44.20;;;;;;4961851;28;20489;-50
2023/02/24 02:21:53;;;;;;;27.97;25.97;;;12.00;44.00;;;;;;4956326;28;20179;-50
2023/02/24 02:24:42;;;;;;;27.77;25.57;;;12.00;43.50;;;;;;4968801;28;20432;-47
2023/02/24 02:27:35;;;;;;;28.40;26.10;;;12.00;43.50;;;;;;4974964;28;20418;-46
2023/02/24 02:30:27;;;;;;;27.63;25.70;;;12.10;43.40;;;;;;4973267;28;20429;-45
2023/02/24 02:33:05;;;;;;;28.40;26.03;;;12.10;43.40;;;;;;4949997;28;20428;-48
2023/02/24 02:35:48;;;;;;;30.63;28.40;;;12.10;43.50;;;;;;4963007;28;20512;-49
2023/02/24 02:38:36;;;;;;;31.40;28.97;;;12.10;43.40;;;;;;4964552;28;20421;-51
2023/02/24 02:41:13;;;;;;;29.17;27.10;;;12.00;43.40;;;;;;4971687;28;20508;-49
2023/02/24 02:44:03;;;;;;;27.80;25.70;;;12.00;43.70;;;;;;4963351;28;20842;-50
2023/02/24 02:46:35;;;;;;;28.97;26.77;;;12.00;43.40;;;;;;4972968;28;20772;-49
2023/02/24 02:49:24;;;;;;;29.47;27.23;;;11.90;43.40;;;;;;4961259;28;20410;-47
2023/02/24 02:51:55;;;;;;;28.77;26.80;;;11.90;44.00;;;;;;4945908;28;20807;-48
2023/02/24 02:54:31;;;;;;;29.83;27.60;;;12.00;43.40;;;;;;4964313;28;20548;-46
2023/02/24 02:57:19;;;;;;;28.90;26.70;;;12.00;43.40;;;;;;4964128;28;20417;-47
2023/02/24 02:59:59;;;;;;;28.43;26.33;;;12.10;43.40;;;;;;4961898;28;20426;-47
2023/02/24 03:02:30;;;;;;;28.73;26.50;;;11.90;43.30;;;;;;4963923;28;20503;-52
2023/02/24 03:04:59;;;;;;;30.10;27.70;;;11.90;44.30;;;;;;4954835;28;20758;-48
2023/02/24 03:07:30;;;;;;;29.07;26.67;;;11.90;44.00;;;;;;4979132;28;20421;-49
2023/02/24 03:10:00;;;;;;;29.97;27.60;;;11.90;43.80;;;;;;4953411;28;20464;-51
2023/02/24 03:12:31;;;;;;;29.93;27.77;;;11.90;43.60;;;;;;4962553;28;20413;-48
2023/02/24 03:15:00;;;;;;;29.73;27.63;;;11.90;43.30;;;;;;4946696;28;20469;-49
2023/02/24 03:17:32;;;;;;;31.07;28.53;;;12.00;43.40;;;;;;4963071;28;20414;-51
2023/02/24 03:20:21;;;;;;;29.83;27.50;;;12.00;43.40;;;;;;4951524;28;20504;-46
2023/02/24 03:23:09;;;;;;;29.93;27.77;;;12.00;43.40;;;;;;4962347;28;20929;-50
2023/02/24 03:25:59;;;;;;;31.97;29.53;;;12.00;43.40;;;;;;4960320;28;20459;-50
2023/02/24 03:28:34;;;;;;;31.70;29.30;;;12.00;43.40;;;;;;4962847;28;20417;-51
2023/02/24 03:31:16;;;;;;;32.73;30.13;;;12.00;43.40;;;;;;4945368;28;20420;-47
2023/02/24 03:33:59;;;;;;;31.40;29.07;;;12.00;43.40;;;;;;4961779;28;20422;-46
2023/02/24 03:36:26;;;;;;;29.53;27.33;;;12.00;43.40;;;;;;4963191;28;20433;-49
2023/02/24 03:38:52;;;;;;;29.90;27.70;;;12.00;43.40;;;;;;4959886;28;20452;-46
2023/02/24 03:41:18;;;;;;;28.53;26.50;;;11.90;43.30;;;;;;4963222;28;20834;-46
2023/02/24 03:43:46;;;;;;;31.37;29.27;;;11.80;44.10;;;;;;4961885;28;20453;-49
2023/02/24 03:46:15;;;;;;;29.87;27.60;;;11.80;43.40;;;;;;4978891;28;20488;-48
2023/02/24 03:48:47;;;;;;;29.20;26.90;;;11.80;44.20;;;;;;4961187;28;20450;-48
2023/02/24 03:51:19;;;;;;;32.47;29.87;;;11.90;43.50;;;;;;4964834;28;20846;-46
2023/02/24 03:53:45;;;;;;;32.40;29.90;;;11.90;43.80;;;;;;4979557;28;20426;-47
2023/02/24 03:56:47;;;;;;;34.40;31.60;;;11.90;43.30;;;;;;4963570;28;20509;-47
2023/02/24 03:59:28;;;;;;;32.87;30.53;;;11.90;43.30;;;;;;4952125;28;20515;-50
2023/02/24 04:02:23;;;;;;;31.83;29.23;;;11.90;43.30;;;;;;4950538;28;20751;-48
2023/02/24 04:04:58;;;;;;;33.00;30.10;;;12.00;43.40;;;;;;4959495;28;20937;-49
2023/02/24 04:07:26;;;;;;;32.60;30.10;;;12.00;43.00;;;;;;4961719;28;20500;-52
2023/02/24 04:09:58;;;;;;;34.13;31.43;;;12.00;43.00;;;;;;4947319;28;20430;-53
2023/02/24 04:12:28;;;;;;;33.20;30.60;;;12.00;42.90;;;;;;4959918;28;20428;-49
2023/02/24 04:15:13;;;;;;;32.33;29.80;;;12.00;42.80;;;;;;4949304;28;21020;-50
2023/02/24 04:17:52;;;;;;;31.30;28.90;;;12.00;42.60;;;;;;4961019;28;20425;-47
2023/02/24 04:20:21;;;;;;;32.87;30.40;;;11.90;43.30;;;;;;4962451;28;20420;-50
2023/02/24 04:22:53;;;;;;;32.30;29.80;;;11.90;43.10;;;;;;4962571;28;20797;-50
2023/02/24 04:25:25;;;;;;;33.23;30.73;;;11.90;42.80;;;;;;4959348;28;20981;-47
2023/02/24 04:28:00;;;;;;;35.10;32.40;;;11.90;43.30;;;;;;4962127;28;20417;-48
2023/02/24 04:30:32;;;;;;;37.93;34.83;;;11.80;43.20;;;;;;4961225;28;20505;-47
2023/02/24 04:32:58;;;;;;;36.67;33.60;;;11.80;43.20;;;;;;4949907;28;20504;-47
2023/02/24 04:35:28;;;;;;;38.67;35.40;;;11.80;43.20;;;;;;4961403;28;20548;-47
2023/02/24 04:37:54;;;;;;;36.27;33.33;;;11.80;43.20;;;;;;4947697;28;20189;-48
2023/02/24 04:40:22;;;;;;;37.70;34.40;;;11.80;43.20;;;;;;4961554;28;20421;-50
2023/02/24 04:42:52;;;;;;;37.30;34.30;;;11.80;43.20;;;;;;4966515;28;20425;-48
2023/02/24 04:45:24;;;;;;;37.17;33.97;;;11.90;43.30;;;;;;4959507;28;20795;-48
2023/02/24 04:47:54;;;;;;;37.87;34.40;;;11.90;43.30;;;;;;4965790;28;20797;-49
2023/02/24 04:50:22;;;;;;;37.87;34.50;;;12.00;43.00;;;;;;4973019;28;20779;-50
2023/02/24 04:52:49;;;;;;;36.10;33.07;;;12.00;42.80;;;;;;4958727;28;20479;-48
2023/02/24 04:55:16;;;;;;;37.17;34.17;;;12.10;42.20;;;;;;4965249;28;20611;-51
2023/02/24 04:57:44;;;;;;;35.20;32.50;;;12.20;41.90;;;;;;4961362;28;20771;-46
2023/02/24 05:00:19;;;;;;;37.27;34.00;;;12.20;41.60;;;;;;4964142;28;20783;-48
2023/02/24 05:02:46;;;;;;;39.30;35.57;;;12.20;41.30;;;;;;4957076;28;20540;-47
2023/02/24 05:05:13;;;;;;;37.57;34.40;;;12.20;41.20;;;;;;4957027;28;20437;-47
2023/02/24 05:07:39;;;;;;;37.63;34.30;;;12.20;41.10;;;;;;4954365;28;20927;-51
2023/02/24 05:10:05;;;;;;;37.77;34.77;;;12.30;41.10;;;;;;4955746;28;20441;-47
2023/02/24 05:12:31;;;;;;;38.03;34.57;;;12.30;41.10;;;;;;4956052;28;20178;-49
2023/02/24 05:15:00;;;;;;;37.80;34.57;;;12.20;40.70;;;;;;4955722;28;20514;-50
2023/02/24 05:17:26;;;;;;;34.93;31.93;;;12.20;40.90;;;;;;4958039;28;20472;-53
2023/02/24 05:22:36;;;;;;;36.43;33.17;;;12.20;40.80;;;;;;4975739;28;20422;-47
2023/02/24 05:25:03;;;;;;;39.87;36.07;;;12.20;40.50;;;;;;4959130;28;20914;-48
2023/02/24 05:27:29;;;;;;;39.73;36.37;;;12.10;40.50;;;;;;4964000;28;20185;-48
2023/02/24 05:29:55;;;;;;;38.93;35.40;;;12.10;40.80;;;;;;4962974;28;20426;-49
2023/02/24 05:32:21;;;;;;;38.60;35.30;;;12.00;41.00;;;;;;4962858;28;20430;-52
2023/02/24 05:34:47;;;;;;;36.50;33.40;;;11.90;41.40;;;;;;4960936;28;20599;-48
2023/02/24 05:37:15;;;;;;;39.20;35.67;;;12.00;41.50;;;;;;4953220;28;20473;-45
2023/02/24 05:39:41;;;;;;;38.80;35.50;;;11.90;41.40;;;;;;4969247;28;20190;-49
2023/02/24 05:42:06;;;;;;;39.57;36.20;;;11.50;42.90;;;;;;4968494;28;20427;-48
2023/02/24 05:44:34;;;;;;;39.40;35.80;;;11.40;44.50;;;;;;4968097;28;20366;-48
2023/02/24 05:47:00;;;;;;;38.40;35.03;;;11.50;44.00;;;;;;4964934;28;20182;-50
2023/02/24 05:49:31;;;;;;;38.50;35.20;;;11.60;43.10;;;;;;4963580;28;20417;-46
2023/02/24 05:51:59;;;;;;;37.60;34.40;;;11.60;43.00;;;;;;4964438;28;20417;-45
2023/02/24 05:54:31;;;;;;;39.30;35.80;;;11.70;42.00;;;;;;4965939;28;20453;-45
2023/02/24 05:57:10;;;;;;;38.83;35.37;;;11.70;43.10;;;;;;4951689;28;20465;-48
2023/02/24 05:59:37;;;;;;;38.80;35.40;;;11.70;43.10;;;;;;4969589;28;20421;-50
2023/02/24 06:02:05;;;;;;;38.90;35.13;;;11.80;42.20;;;;;;4958329;28;20424;-50
2023/02/24 06:04:39;;;;;;;38.17;34.67;;;11.80;41.90;;;;;;4970747;28;20413;-46
2023/02/24 06:07:12;;;;;;;40.10;36.40;;;11.80;42.00;;;;;;4967885;28;20413;-48
2023/02/24 06:09:41;;;;;;;39.17;35.20;;;11.90;41.90;;;;;;4967438;28;20917;-48
2023/02/24 06:12:07;;;;;;;38.07;34.73;;;11.90;41.50;;;;;;4968422;28;20410;-51
2023/02/24 06:14:33;;;;;;;39.20;35.67;;;11.90;41.30;;;;;;4965615;28;20469;-49
2023/02/24 06:17:01;;;;;;;41.20;37.57;;;11.80;41.40;;;;;;4964077;28;20422;-51
2023/02/24 06:19:30;;;;;;;43.53;39.23;;;11.80;41.80;;;;;;4964735;28;20183;-48
2023/02/24 06:22:00;;;;;;;42.37;38.13;;;11.80;41.70;;;;;;4968073;28;20413;-46
2023/02/24 06:24:31;;;;;;;43.83;39.77;;;11.80;41.90;;;;;;4966863;28;20418;-49
2023/02/24 06:27:20;;;;;;;41.67;38.07;;;11.80;42.30;;;;;;4961601;28;20448;-50
2023/02/24 06:29:48;;;;;;;38.80;35.47;;;11.80;42.20;;;;;;4988166;28;20421;-51
2023/02/24 06:32:22;;;;;;;39.67;36.20;;;11.80;42.20;;;;;;4962167;28;20481;-52
2023/02/24 06:34:48;;;;;;;39.77;36.17;;;11.80;41.70;;;;;;4954715;28;20462;-46
2023/02/24 06:37:15;;;;;;;40.87;37.40;;;11.80;41.90;;;;;;4958538;28;20450;-52
2023/02/24 06:39:42;;;;;;;43.27;39.17;;;11.80;41.80;;;;;;4961168;28;20430;-52
2023/02/24 06:42:09;;;;;;;41.57;37.63;;;11.70;42.40;;;;;;4965172;28;20410;-51
2023/02/24 06:44:39;;;;;;;42.50;38.40;;;11.70;42.70;;;;;;4965200;28;20473;-46
2023/02/24 06:47:07;;;;;;;40.03;36.50;;;11.70;42.80;;;;;;4968967;28;20434;-51
2023/02/24 06:49:33;;;;;;;44.73;40.63;;;11.70;42.90;;;;;;4964901;28;20702;-50
2023/02/24 06:51:59;;;;;;;43.17;39.00;;;11.70;42.60;;;;;;4960773;28;20444;-49
2023/02/24 06:54:27;;;;;;;43.90;39.50;;;11.60;42.50;;;;;;4980222;28;20860;-60
2023/02/24 06:56:53;;;;;;;44.77;40.63;;;11.60;43.10;;;;;;4956251;28;20833;-57
2023/02/24 06:59:27;;;;;;;42.37;38.60;;;11.50;42.90;;;;;;4969813;28;20425;-60
2023/02/24 07:02:02;;;;;;;44.70;40.30;;;11.50;43.00;;;;;;4957279;28;20421;-58
2023/02/24 07:04:28;;;;;;;41.70;37.60;;;11.50;43.10;;;;;;4960040;28;20449;-59
2023/02/24 07:07:01;;;;;;;43.93;39.87;;;11.50;43.50;;;;;;4961475;28;20451;-59
2023/02/24 07:09:28;;;;;;;43.17;38.97;;;11.50;43.10;;;;;;4959615;28;20433;-60
2023/02/24 07:11:55;;;;;;;45.70;39.63;;;11.50;43.70;;;;;;4961234;28;20424;-60
2023/02/24 07:14:26;;;;;;;43.10;39.07;;;11.50;43.60;;;;;;4959686;28;20461;-59
2023/02/24 07:16:52;;;;;;;48.10;43.23;;;11.50;43.80;;;;;;4966281;28;20922;-59
2023/02/24 07:19:21;;;;;;;44.57;40.30;;;11.50;44.10;;;;;;4964299;28;20429;-57
2023/02/24 07:21:51;;;;;;;43.83;39.53;;;11.40;44.60;;;;;;4969312;28;20517;-57
2023/02/24 07:24:23;;;;;;;47.43;42.53;;;11.40;45.10;;;;;;4960689;28;20418;-59
2023/02/24 07:26:59;;;;;;;43.87;39.57;;;11.50;44.70;;;;;;4956732;28;20410;-59
2023/02/24 07:29:26;;;;;;;45.40;40.87;;;11.60;45.10;;;;;;4953496;28;20429;-59
2023/02/24 07:31:53;;;;;;;45.33;40.73;;;11.60;44.80;;;;;;4964550;28;20465;-58
2023/02/24 07:34:23;;;;;;;44.30;39.80;;;11.70;45.00;;;;;;4966952;28;20507;-59
2023/02/24 07:36:51;;;;;;;43.07;39.07;;;11.70;44.70;;;;;;4966324;28;20541;-59
2023/02/24 07:39:18;;;;;;;46.43;41.53;;;11.70;44.30;;;;;;4965902;28;20420;-60
2023/02/24 07:41:45;;;;;;;45.90;41.20;;;11.80;44.20;;;;;;4965526;28;20437;-60
2023/02/24 07:44:12;;;;;;;45.67;40.40;;;11.70;43.60;;;;;;4960090;28;20508;-60
2023/02/24 07:46:39;;;;;;;48.40;43.50;;;11.70;43.50;;;;;;4957627;28;20496;-60
2023/02/24 07:49:08;;;;;;;45.90;41.30;;;11.70;43.70;;;;;;4961342;28;20472;-60
2023/02/24 07:51:34;;;;;;;45.90;41.30;;;11.70;43.70;;;;;;4966658;28;20440;-57
2023/02/24 07:54:02;;;;;;;49.73;44.40;;;11.70;43.90;;;;;;4960184;28;20425;-60
2023/02/24 07:56:30;;;;;;;44.60;40.17;;;11.70;43.80;;;;;;4983460;28;20864;-61
2023/02/24 07:59:02;;;;;;;48.67;44.10;;;11.70;43.50;;;;;;4963997;28;20426;-61
2023/02/24 08:01:37;;;;;;;47.47;42.67;;;11.70;43.90;;;;;;4964755;28;20433;-61
2023/02/24 08:04:06;;;;;;;46.77;42.13;;;11.70;44.00;;;;;;4956254;28;20433;-64
2023/02/24 08:06:42;;;;;;;46.30;41.63;;;11.60;43.90;;;;;;4964104;28;20789;-62
2023/02/24 08:09:16;;;;;;;48.70;44.10;;;11.60;44.10;;;;;;4966916;28;20471;-60
2023/02/24 08:11:55;;;;;;;49.17;44.20;;;11.60;44.30;;;;;;4981945;28;20446;-60
2023/02/24 08:14:24;;;;;;;46.77;42.07;;;11.50;44.20;;;;;;4964491;28;20421;-61
2023/02/24 08:17:00;;;;;;;48.20;43.10;;;11.40;44.30;;;;;;4965297;28;20445;-51
2023/02/24 08:22:22;;;;;;;46.80;41.77;;;11.20;45.90;;;;;;4952839;28;20465;-54
2023/02/24 08:24:54;;;;;;;47.57;42.50;;;11.10;46.30;;;;;;4958637;28;20549;-53
2023/02/24 08:27:23;;;;;;;41.43;37.20;;;11.10;46.70;;;;;;4960104;28;20488;-52
2023/02/24 08:30:01;;;;;;;36.23;33.10;;;10.90;47.20;;;;;;4970764;28;20433;-51
2023/02/24 08:32:32;;;;;;;38.30;34.70;;;10.80;47.60;;;;;;4971646;28;20825;-60
2023/02/24 08:35:01;;;;;;;37.77;34.27;;;10.60;48.50;;;;;;4974115;28;20460;-60
2023/02/24 08:37:33;;;;;;;27.77;25.40;;;10.50;48.60;;;;;;4975111;28;20437;-60
2023/02/24 08:39:59;;;;;;;33.97;31.10;;;10.60;49.30;;;;;;4975278;28;20423;-61
2023/02/24 08:42:33;;;;;;;33.23;30.33;;;10.80;48.90;;;;;;4974813;28;20416;-61
2023/02/24 08:45:00;;;;;;;34.10;31.10;;;10.90;48.00;;;;;;4992479;28;20436;-53
2023/02/24 08:47:29;;;;;;;32.03;29.00;;;11.20;47.90;;;;;;4990990;28;20421;-52
2023/02/24 08:50:01;;;;;;;32.73;29.97;;;11.30;45.20;;;;;;4974941;28;20421;-52
2023/02/24 08:52:27;;;;;;;31.30;28.40;;;11.20;45.00;;;;;;4974929;28;20431;-56
2023/02/24 08:54:58;;;;;;;28.63;26.13;;;11.20;45.60;;;;;;4976176;28;20864;-55
2023/02/24 08:57:26;;;;;;;28.63;26.27;;;11.30;45.10;;;;;;4976480;28;20440;-54
2023/02/24 08:59:56;;;;;;;30.57;27.60;;;11.30;44.30;;;;;;4976283;28;20774;-55
2023/02/24 09:02:27;;;;;;;28.53;26.00;;;11.20;44.50;;;;;;4977652;28;20783;-55
2023/02/24 09:04:59;;;;;;;30.27;27.27;;;11.10;44.60;;;;;;4981787;28;20414;-54
2023/02/24 09:07:35;;;;;;;28.50;25.80;;;11.10;44.80;;;;;;4980001;28;20783;-52
2023/02/24 09:10:20;;;;;;;25.80;23.60;;;11.00;44.10;;;;;;4978776;28;20419;-54
2023/02/24 09:12:47;;;;;;;26.47;24.07;;;10.90;44.30;;;;;;4978603;28;20823;-48
2023/02/24 09:15:14;;;;;;;24.40;22.20;;;11.00;45.30;;;;;;4978406;28;21015;-53
2023/02/24 09:20:54;;;;;;;25.60;23.40;;;11.20;43.30;;;;;;4996151;28;20463;-53
2023/02/24 09:23:07;;;;;;;24.70;22.30;;;11.20;43.40;;;;;;4995664;28;20520;-54
2023/02/24 09:25:39;;;;;;;24.73;22.80;;;11.30;42.80;;;;;;4978338;28;20444;-52
2023/02/24 09:28:26;;;;;;;22.63;20.40;;;11.40;42.80;;;;;;4978314;28;20428;-55
2023/02/24 09:30:54;;;;;;;29.60;26.50;;;11.40;40.70;;;;;;4978167;28;20421;-58
2023/02/24 09:33:29;;;;;;;30.87;27.97;;;11.40;41.00;;;;;;4978043;28;20843;-52
2023/02/24 09:36:11;;;;;;;35.87;32.70;;;11.50;42.90;;;;;;4995547;28;20470;-54
2023/02/24 09:41:52;;;;;;;33.47;30.47;;;11.80;43.10;;;;;;4994996;28;20414;-52
2023/02/24 09:44:36;;;;;;;33.60;30.43;;;11.90;42.10;;;;;;4977669;28;20425;-53
2023/02/24 09:47:56;;;;;;;32.33;29.63;;;11.90;41.50;;;;;;4978022;28;20413;-50
2023/02/24 09:50:36;;;;;;;31.17;28.33;;;11.90;41.10;;;;;;4951714;28;20425;-50
2023/02/24 09:53:13;;;;;;;30.43;27.50;;;11.90;41.20;;;;;;4977692;28;20425;-50
2023/02/24 09:55:59;;;;;;;29.27;26.17;;;11.80;40.60;;;;;;4977502;28;20465;-50
2023/02/24 09:58:47;;;;;;;28.00;25.30;;;11.80;40.90;;;;;;4977790;28;20413;-54
2023/02/24 10:01:41;;;;;;;25.10;22.60;;;11.80;39.70;;;;;;4977580;28;20444;-53
2023/02/24 10:04:28;;;;;;;26.60;24.30;;;11.80;40.20;;;;;;4977431;28;20421;-50
2023/02/24 10:07:11;;;;;;;25.03;22.60;;;11.90;38.90;;;;;;4977607;28;20750;-49
2023/02/24 10:09:45;;;;;;;25.93;23.80;;;11.70;39.10;;;;;;4977507;28;20424;-55
2023/02/24 10:12:20;;;;;;;26.27;23.90;;;11.80;39.90;;;;;;4977462;28;20413;-53
2023/02/24 10:14:51;;;;;;;26.97;24.63;;;12.00;39.30;;;;;;4977154;28;20483;-54
2023/02/24 10:17:38;;;;;;;29.67;26.80;;;12.10;39.30;;;;;;4977618;28;20751;-51
2023/02/24 10:20:22;;;;;;;30.00;27.20;;;12.10;39.10;;;;;;4977399;28;20413;-54
2023/02/24 10:23:28;;;;;;;25.53;23.23;;;12.10;39.00;;;;;;4977248;28;20509;-51
2023/02/24 10:26:29;;;;;;;26.80;24.30;;;12.00;39.30;;;;;;4942930;28;20859;-50
2023/02/24 10:29:37;;;;;;;24.13;21.87;;;12.00;39.40;;;;;;4957852;28;20520;-53
2023/02/24 10:32:32;;;;;;;26.23;23.93;;;12.10;39.50;;;;;;4958209;28;20425;-53
2023/02/24 10:34:59;;;;;;;24.63;22.20;;;12.00;39.00;;;;;;4935314;28;21008;-51
2023/02/24 10:37:27;;;;;;;24.00;21.40;;;12.00;39.50;;;;;;4950659;29;20427;-49
2023/02/24 10:40:09;;;;;;;23.43;21.53;;;12.00;38.40;;;;;;4938631;29;20761;-53
2023/02/24 10:42:43;;;;;;;24.43;22.13;;;12.00;38.40;;;;;;4948753;28;20488;-53
2023/02/24 10:45:23;;;;;;;22.70;20.53;;;11.90;38.30;;;;;;4949235;28;20952;-54
2023/02/24 10:47:55;;;;;;;23.23;21.17;;;12.00;38.00;;;;;;4938680;28;20431;-53
2023/02/24 10:50:22;;;;;;;23.63;21.37;;;12.00;37.90;;;;;;4938630;29;20426;-61
2023/02/24 10:52:49;;;;;;;24.77;22.40;;;12.00;38.00;;;;;;4938151;29;20915;-60
2023/02/24 10:55:27;;;;;;;25.50;23.20;;;12.00;37.70;;;;;;4937874;29;20477;-61
2023/02/24 10:58:14;;;;;;;26.77;24.33;;;12.10;37.60;;;;;;4938137;29;20419;-61
2023/02/24 11:03:42;;;;;;;33.30;29.93;;;12.10;38.40;;;;;;4955485;29;20402;-60
2023/02/24 11:06:29;;;;;;;33.23;29.27;;;12.10;38.30;;;;;;4938078;29;20418;-60
2023/02/24 11:09:18;;;;;;;35.63;32.20;;;12.00;38.40;;;;;;4937954;29;20415;-60
2023/02/24 11:17:25;;;;;;;33.83;30.23;;;12.00;39.10;;;;;;4955418;29;20539;-60
2023/02/24 11:20:00;;;;;;;37.30;33.70;;;12.00;39.00;;;;;;4937565;29;20421;-60
2023/02/24 11:22:31;;;;;;;36.90;33.10;;;12.00;38.80;;;;;;4937567;29;20951;-60
2023/02/24 11:25:07;;;;;;;39.63;32.90;;;12.00;38.80;;;;;;4937201;29;20810;-60
2023/02/24 11:27:33;;;;;;;38.13;34.13;;;11.90;38.90;;;;;;4957104;28;20811;-50
2023/02/24 11:30:16;;;;;;;37.33;33.63;;;11.90;39.10;;;;;;4945402;28;20419;-55
2023/02/24 11:32:56;;;;;;;37.20;33.17;;;11.90;39.00;;;;;;4955833;28;20935;-50
2023/02/24 11:35:44;;;;;;;36.40;32.57;;;11.90;39.20;;;;;;4969417;28;20497;-48
2023/02/24 11:38:35;;;;;;;37.20;33.50;;;11.90;39.50;;;;;;4940269;29;20467;-51
2023/02/24 11:41:14;;;;;;;36.30;32.47;;;12.00;39.40;;;;;;4972207;28;20437;-53
2023/02/24 11:43:45;;;;;;;36.23;31.73;;;12.00;39.30;;;;;;4956135;28;20449;-52
2023/02/24 11:46:20;;;;;;;36.93;32.97;;;12.00;39.10;;;;;;4956207;28;20466;-51
2023/02/24 11:48:55;;;;;;;38.13;32.30;;;12.00;38.70;;;;;;4956289;28;20429;-54
2023/02/24 11:51:31;;;;;;;35.67;32.17;;;12.00;39.10;;;;;;4956472;28;20457;-60
2023/02/24 11:54:10;;;;;;;33.17;29.63;;;12.10;38.90;;;;;;4956517;28;20512;-60
2023/02/24 11:57:05;;;;;;;32.40;29.20;;;12.10;38.60;;;;;;4956271;28;20501;-60
2023/02/24 12:00:00;;;;;;;30.23;27.23;;;12.10;38.40;;;;;;4951535;28;20411;-60
2023/02/24 12:02:40;;;;;;;31.10;27.80;;;11.90;38.10;;;;;;4955314;28;20410;-49
2023/02/24 12:05:25;;;;;;;29.43;26.60;;;11.70;38.90;;;;;;4948097;28;20414;-50
2023/02/24 12:08:02;;;;;;;33.27;27.67;;;11.70;39.10;;;;;;4946618;28;20986;-50
2023/02/24 12:10:34;;;;;;;31.80;28.80;;;11.80;38.50;;;;;;4947773;28;20418;-49
2023/02/24 12:13:19;;;;;;;27.93;25.30;;;11.80;37.80;;;;;;4971230;28;20851;-49
2023/02/24 12:15:55;;;;;;;30.40;27.30;;;11.70;38.50;;;;;;4952912;28;20533;-52
2023/02/24 12:18:24;;;;;;;30.20;27.10;;;11.80;38.00;;;;;;4946533;28;20418;-50
2023/02/24 12:20:59;;;;;;;28.17;25.43;;;11.90;37.70;;;;;;4948279;28;20799;-52
2023/02/24 12:23:31;;;;;;;27.33;24.90;;;12.00;37.20;;;;;;4959977;28;20505;-55
2023/02/24 12:26:17;;;;;;;27.80;25.10;;;11.80;37.20;;;;;;4983844;28;20508;-51
2023/02/24 12:28:58;;;;;;;25.40;23.10;;;11.60;37.40;;;;;;4956532;28;20429;-51
2023/02/24 12:32:03;;;;;;;24.90;22.43;;;11.70;36.70;;;;;;4970778;28;20508;-51
2023/02/24 12:34:34;;;;;;;23.90;21.90;;;11.50;36.90;;;;;;4970855;28;20972;-51
2023/02/24 12:37:29;;;;;;;25.20;22.70;;;11.70;37.30;;;;;;4952626;28;20958;-52
2023/02/24 12:40:10;;;;;;;26.67;23.97;;;11.90;36.40;;;;;;4950618;28;20422;-53
2023/02/24 12:42:43;;;;;;;23.60;21.30;;;12.00;36.00;;;;;;4953695;28;20418;-53
2023/02/24 12:45:22;;;;;;;24.13;21.97;;;12.20;35.60;;;;;;4961955;28;20438;-50
2023/02/24 12:47:56;;;;;;;22.37;20.33;;;12.30;34.40;;;;;;4989997;28;20515;-50
2023/02/24 12:50:29;;;;;;;23.60;21.30;;;12.30;34.10;;;;;;4970312;28;20508;-52
2023/02/24 12:53:16;;;;;;;25.07;20.03;;;12.40;35.00;;;;;;4963902;28;20788;-55
2023/02/24 12:56:23;;;;;;;22.33;20.43;;;12.30;32.70;;;;;;4956529;28;20497;-53
2023/02/24 12:58:53;;;;;;;19.90;18.20;;;12.40;33.70;;;;;;4866058;29;20474;-52
2023/02/24 13:01:31;;;;;;;20.43;18.70;;;12.40;33.00;;;;;;4945977;28;20500;-54
2023/02/24 13:04:16;;;;;;;17.67;16.07;;;12.50;32.90;;;;;;4978277;28;20431;-52
2023/02/24 13:07:00;;;;;;;17.77;14.97;;;12.60;31.50;;;;;;4981713;28;20405;-59
2023/02/24 13:09:47;;;;;;;15.53;14.20;;;12.50;29.40;;;;;;4981547;28;20786;-59
2023/02/24 13:12:26;;;;;;;16.30;14.80;;;12.20;29.00;;;;;;4981434;28;20456;-59
2023/02/24 13:14:52;;;;;;;15.57;14.07;;;12.20;29.50;;;;;;4981593;28;20467;-60
2023/02/24 13:17:21;;;;;;;16.83;15.43;;;12.20;29.50;;;;;;4981368;28;20960;-60
2023/02/24 13:19:48;;;;;;;16.63;14.40;;;12.30;29.60;;;;;;4981236;28;20556;-62
2023/02/24 13:22:15;;;;;;;16.57;15.20;;;12.20;29.90;;;;;;4976450;28;20829;-58
2023/02/24 13:24:54;;;;;;;17.90;16.10;;;12.10;30.60;;;;;;4968498;28;20487;-59